sensor_id;sensor_type;location;lat;lon;timestamp;P1;durP1;ratioP1;P2;durP2;ratioP2
44434;SDS011;30138;20.964;105.830;2023-12-29T00:01:56;375.13;;;229.98;;
44434;SDS011;30138;20.964;105.830;2023-12-29T00:07:02;382.05;;;226.60;;
44434;SDS011;30138;20.964;105.830;2023-12-29T00:12:08;395.95;;;236.18;;
44434;SDS011;30138;20.964;105.830;2023-12-29T00:17:17;383.23;;;232.43;;
44434;SDS011;30138;20.964;105.830;2023-12-29T00:22:23;387.38;;;232.38;;
44434;SDS011;30138;20.964;105.830;2023-12-29T00:27:29;381.75;;;232.25;;
44434;SDS011;30138;20.964;105.830;2023-12-29T00:32:37;391.15;;;239.90;;
44434;SDS011;30138;20.964;105.830;2023-12-29T00:37:43;389.52;;;235.75;;
44434;SDS011;30138;20.964;105.830;2023-12-29T00:42:50;397.75;;;240.50;;
44434;SDS011;30138;20.964;105.830;2023-12-29T00:47:59;388.85;;;235.80;;
44434;SDS011;30138;20.964;105.830;2023-12-29T00:53:06;389.52;;;237.23;;
44434;SDS011;30138;20.964;105.830;2023-12-29T00:58:12;393.95;;;236.02;;
44434;SDS011;30138;20.964;105.830;2023-12-29T01:03:20;402.58;;;236.93;;
44434;SDS011;30138;20.964;105.830;2023-12-29T01:08:26;387.48;;;227.40;;
44434;SDS011;30138;20.964;105.830;2023-12-29T01:13:32;410.40;;;243.95;;
44434;SDS011;30138;20.964;105.830;2023-12-29T01:18:40;382.48;;;228.23;;
44434;SDS011;30138;20.964;105.830;2023-12-29T01:23:45;380.05;;;226.27;;
44434;SDS011;30138;20.964;105.830;2023-12-29T01:28:51;348.05;;;208.73;;
44434;SDS011;30138;20.964;105.830;2023-12-29T01:33:59;380.58;;;229.68;;
44434;SDS011;30138;20.964;105.830;2023-12-29T01:39:05;380.88;;;226.85;;
44434;SDS011;30138;20.964;105.830;2023-12-29T01:44:20;380.13;;;227.10;;
44434;SDS011;30138;20.964;105.830;2023-12-29T01:49:29;370.13;;;224.63;;
44434;SDS011;30138;20.964;105.830;2023-12-29T01:54:35;380.98;;;227.45;;
44434;SDS011;30138;20.964;105.830;2023-12-29T01:59:44;367.02;;;218.45;;
44434;SDS011;30138;20.964;105.830;2023-12-29T02:04:53;370.23;;;218.82;;
44434;SDS011;30138;20.964;105.830;2023-12-29T02:10:01;374.20;;;222.75;;
44434;SDS011;30138;20.964;105.830;2023-12-29T02:15:09;343.70;;;212.77;;
44434;SDS011;30138;20.964;105.830;2023-12-29T02:20:17;343.13;;;207.38;;
44434;SDS011;30138;20.964;105.830;2023-12-29T02:25:26;342.35;;;204.48;;
44434;SDS011;30138;20.964;105.830;2023-12-29T02:30:33;331.33;;;203.20;;
44434;SDS011;30138;20.964;105.830;2023-12-29T02:35:45;310.65;;;187.73;;
44434;SDS011;30138;20.964;105.830;2023-12-29T02:40:56;307.30;;;183.35;;
44434;SDS011;30138;20.964;105.830;2023-12-29T02:46:03;308.75;;;185.02;;
44434;SDS011;30138;20.964;105.830;2023-12-29T02:51:09;290.58;;;181.02;;
44434;SDS011;30138;20.964;105.830;2023-12-29T02:56:17;306.08;;;181.60;;
44434;SDS011;30138;20.964;105.830;2023-12-29T03:01:24;312.25;;;190.60;;
44434;SDS011;30138;20.964;105.830;2023-12-29T03:06:31;310.83;;;182.20;;
44434;SDS011;30138;20.964;105.830;2023-12-29T03:11:38;312.23;;;183.73;;
44434;SDS011;30138;20.964;105.830;2023-12-29T03:16:44;307.35;;;187.55;;
44434;SDS011;30138;20.964;105.830;2023-12-29T03:21:51;288.10;;;177.93;;
44434;SDS011;30138;20.964;105.830;2023-12-29T03:27:00;278.38;;;167.20;;
44434;SDS011;30138;20.964;105.830;2023-12-29T03:32:06;265.80;;;160.02;;
44434;SDS011;30138;20.964;105.830;2023-12-29T03:37:13;267.42;;;162.45;;
44434;SDS011;30138;20.964;105.830;2023-12-29T03:42:23;264.88;;;158.43;;
44434;SDS011;30138;20.964;105.830;2023-12-29T03:47:29;276.70;;;165.43;;
44434;SDS011;30138;20.964;105.830;2023-12-29T03:52:37;267.08;;;165.15;;
44434;SDS011;30138;20.964;105.830;2023-12-29T03:57:47;267.38;;;157.45;;
44434;SDS011;30138;20.964;105.830;2023-12-29T04:02:55;255.60;;;154.05;;
44434;SDS011;30138;20.964;105.830;2023-12-29T04:08:02;266.35;;;154.50;;
44434;SDS011;30138;20.964;105.830;2023-12-29T04:13:11;254.73;;;152.15;;
44434;SDS011;30138;20.964;105.830;2023-12-29T04:18:17;245.73;;;146.75;;
44434;SDS011;30138;20.964;105.830;2023-12-29T04:23:24;255.10;;;149.18;;
44434;SDS011;30138;20.964;105.830;2023-12-29T04:28:33;242.00;;;142.25;;
44434;SDS011;30138;20.964;105.830;2023-12-29T04:33:39;242.25;;;145.23;;
44434;SDS011;30138;20.964;105.830;2023-12-29T04:38:45;235.50;;;138.50;;
44434;SDS011;30138;20.964;105.830;2023-12-29T04:43:53;223.18;;;134.48;;
44434;SDS011;30138;20.964;105.830;2023-12-29T04:48:59;232.82;;;136.07;;
44434;SDS011;30138;20.964;105.830;2023-12-29T04:54:05;222.82;;;131.93;;
44434;SDS011;30138;20.964;105.830;2023-12-29T04:59:13;215.68;;;129.88;;
44434;SDS011;30138;20.964;105.830;2023-12-29T05:04:20;202.65;;;125.78;;
44434;SDS011;30138;20.964;105.830;2023-12-29T05:09:27;197.80;;;120.40;;
44434;SDS011;30138;20.964;105.830;2023-12-29T05:14:36;191.43;;;117.90;;
44434;SDS011;30138;20.964;105.830;2023-12-29T05:19:42;189.07;;;117.65;;
44434;SDS011;30138;20.964;105.830;2023-12-29T05:24:48;191.45;;;115.65;;
44434;SDS011;30138;20.964;105.830;2023-12-29T05:29:57;179.85;;;111.75;;
44434;SDS011;30138;20.964;105.830;2023-12-29T05:35:03;177.00;;;110.32;;
44434;SDS011;30138;20.964;105.830;2023-12-29T05:40:10;170.63;;;106.25;;
44434;SDS011;30138;20.964;105.830;2023-12-29T05:45:18;172.95;;;106.05;;
44434;SDS011;30138;20.964;105.830;2023-12-29T05:50:24;175.18;;;107.75;;
44434;SDS011;30138;20.964;105.830;2023-12-29T05:55:30;160.68;;;102.93;;
44434;SDS011;30138;20.964;105.830;2023-12-29T06:00:38;170.93;;;107.28;;
44434;SDS011;30138;20.964;105.830;2023-12-29T06:05:43;169.50;;;104.10;;
44434;SDS011;30138;20.964;105.830;2023-12-29T06:10:50;167.63;;;106.88;;
44434;SDS011;30138;20.964;105.830;2023-12-29T06:15:58;158.15;;;99.70;;
44434;SDS011;30138;20.964;105.830;2023-12-29T06:21:04;159.63;;;102.55;;
44434;SDS011;30138;20.964;105.830;2023-12-29T06:26:19;168.55;;;105.18;;
44434;SDS011;30138;20.964;105.830;2023-12-29T06:31:27;162.80;;;103.07;;
44434;SDS011;30138;20.964;105.830;2023-12-29T06:36:33;157.90;;;99.70;;
44434;SDS011;30138;20.964;105.830;2023-12-29T06:41:38;154.90;;;98.38;;
44434;SDS011;30138;20.964;105.830;2023-12-29T06:46:46;163.65;;;104.97;;
44434;SDS011;30138;20.964;105.830;2023-12-29T06:51:52;143.07;;;94.47;;
44434;SDS011;30138;20.964;105.830;2023-12-29T06:56:59;144.65;;;93.63;;
44434;SDS011;30138;20.964;105.830;2023-12-29T07:02:06;165.43;;;98.47;;
44434;SDS011;30138;20.964;105.830;2023-12-29T07:07:13;150.20;;;97.53;;
44434;SDS011;30138;20.964;105.830;2023-12-29T07:12:18;147.82;;;93.70;;
44434;SDS011;30138;20.964;105.830;2023-12-29T07:17:27;140.65;;;91.43;;
44434;SDS011;30138;20.964;105.830;2023-12-29T07:22:34;158.20;;;96.72;;
44434;SDS011;30138;20.964;105.830;2023-12-29T07:27:40;155.18;;;98.88;;
44434;SDS011;30138;20.964;105.830;2023-12-29T07:32:49;153.82;;;99.35;;
44434;SDS011;30138;20.964;105.830;2023-12-29T07:37:56;161.65;;;103.85;;
44434;SDS011;30138;20.964;105.830;2023-12-29T07:43:02;161.98;;;104.88;;
44434;SDS011;30138;20.964;105.830;2023-12-29T07:48:12;172.02;;;107.80;;
44434;SDS011;30138;20.964;105.830;2023-12-29T07:53:18;172.57;;;109.45;;
44434;SDS011;30138;20.964;105.830;2023-12-29T07:58:24;176.18;;;108.63;;
44434;SDS011;30138;20.964;105.830;2023-12-29T08:03:32;168.32;;;106.55;;
44434;SDS011;30138;20.964;105.830;2023-12-29T08:08:39;163.05;;;106.82;;
44434;SDS011;30138;20.964;105.830;2023-12-29T08:13:46;165.35;;;106.60;;
44434;SDS011;30138;20.964;105.830;2023-12-29T08:18:55;167.70;;;109.60;;
44434;SDS011;30138;20.964;105.830;2023-12-29T08:24:01;161.65;;;104.97;;
44434;SDS011;30138;20.964;105.830;2023-12-29T08:29:08;167.27;;;105.68;;
44434;SDS011;30138;20.964;105.830;2023-12-29T08:34:16;171.15;;;108.70;;
44434;SDS011;30138;20.964;105.830;2023-12-29T08:39:22;157.57;;;103.45;;
44434;SDS011;30138;20.964;105.830;2023-12-29T08:44:28;165.45;;;108.40;;
44434;SDS011;30138;20.964;105.830;2023-12-29T08:49:36;164.95;;;106.78;;
44434;SDS011;30138;20.964;105.830;2023-12-29T08:54:44;162.90;;;105.38;;
44434;SDS011;30138;20.964;105.830;2023-12-29T08:59:50;163.88;;;109.80;;
44434;SDS011;30138;20.964;105.830;2023-12-29T09:04:59;169.85;;;111.28;;
44434;SDS011;30138;20.964;105.830;2023-12-29T09:10:06;172.88;;;112.80;;
44434;SDS011;30138;20.964;105.830;2023-12-29T09:15:14;182.43;;;115.72;;
44434;SDS011;30138;20.964;105.830;2023-12-29T09:20:23;180.80;;;114.65;;
44434;SDS011;30138;20.964;105.830;2023-12-29T09:25:29;188.45;;;115.82;;
44434;SDS011;30138;20.964;105.830;2023-12-29T09:30:35;181.95;;;114.97;;
44434;SDS011;30138;20.964;105.830;2023-12-29T09:35:44;186.35;;;117.65;;
44434;SDS011;30138;20.964;105.830;2023-12-29T09:40:51;190.90;;;120.10;;
44434;SDS011;30138;20.964;105.830;2023-12-29T09:46:00;187.63;;;119.10;;
44434;SDS011;30138;20.964;105.830;2023-12-29T09:51:10;199.70;;;128.50;;
44434;SDS011;30138;20.964;105.830;2023-12-29T09:56:17;195.57;;;125.85;;
44434;SDS011;30138;20.964;105.830;2023-12-29T10:01:26;200.60;;;123.93;;
44434;SDS011;30138;20.964;105.830;2023-12-29T10:06:36;207.20;;;132.60;;
44434;SDS011;30138;20.964;105.830;2023-12-29T10:11:47;195.70;;;125.35;;
44434;SDS011;30138;20.964;105.830;2023-12-29T10:17:00;193.65;;;123.38;;
44434;SDS011;30138;20.964;105.830;2023-12-29T10:22:20;220.73;;;134.90;;
44434;SDS011;30138;20.964;105.830;2023-12-29T10:27:33;211.35;;;131.90;;
44434;SDS011;30138;20.964;105.830;2023-12-29T10:32:40;226.63;;;135.60;;
44434;SDS011;30138;20.964;105.830;2023-12-29T10:37:47;241.73;;;149.30;;
44434;SDS011;30138;20.964;105.830;2023-12-29T10:42:53;227.18;;;140.90;;
44434;SDS011;30138;20.964;105.830;2023-12-29T10:48:02;215.23;;;137.50;;
44434;SDS011;30138;20.964;105.830;2023-12-29T10:53:15;244.48;;;150.60;;
44434;SDS011;30138;20.964;105.830;2023-12-29T10:58:21;253.93;;;152.63;;
44434;SDS011;30138;20.964;105.830;2023-12-29T11:03:28;233.70;;;147.18;;
44434;SDS011;30138;20.964;105.830;2023-12-29T11:08:37;238.68;;;146.82;;
44434;SDS011;30138;20.964;105.830;2023-12-29T11:13:43;243.88;;;149.43;;
44434;SDS011;30138;20.964;105.830;2023-12-29T11:18:50;213.77;;;136.60;;
44434;SDS011;30138;20.964;105.830;2023-12-29T11:24:00;243.40;;;152.15;;
44434;SDS011;30138;20.964;105.830;2023-12-29T11:29:07;247.82;;;148.55;;
44434;SDS011;30138;20.964;105.830;2023-12-29T11:34:16;230.85;;;145.52;;
44434;SDS011;30138;20.964;105.830;2023-12-29T11:39:33;241.65;;;150.00;;
44434;SDS011;30138;20.964;105.830;2023-12-29T11:44:47;229.75;;;144.93;;
44434;SDS011;30138;20.964;105.830;2023-12-29T11:49:59;239.77;;;146.55;;
44434;SDS011;30138;20.964;105.830;2023-12-29T11:55:09;225.75;;;142.05;;
44434;SDS011;30138;20.964;105.830;2023-12-29T12:00:16;224.75;;;143.98;;
44434;SDS011;30138;20.964;105.830;2023-12-29T12:10:54;223.73;;;142.07;;
44434;SDS011;30138;20.964;105.830;2023-12-29T12:16:01;225.63;;;142.57;;
44434;SDS011;30138;20.964;105.830;2023-12-29T12:21:08;230.95;;;143.65;;
44434;SDS011;30138;20.964;105.830;2023-12-29T12:26:15;225.48;;;142.23;;
44434;SDS011;30138;20.964;105.830;2023-12-29T12:31:24;222.70;;;141.13;;
44434;SDS011;30138;20.964;105.830;2023-12-29T12:36:30;225.35;;;141.68;;
44434;SDS011;30138;20.964;105.830;2023-12-29T12:41:39;218.68;;;138.93;;
44434;SDS011;30138;20.964;105.830;2023-12-29T12:46:49;220.70;;;140.00;;
44434;SDS011;30138;20.964;105.830;2023-12-29T12:52:04;216.05;;;137.82;;
44434;SDS011;30138;20.964;105.830;2023-12-29T12:57:12;206.90;;;135.30;;
44434;SDS011;30138;20.964;105.830;2023-12-29T13:02:23;217.77;;;137.32;;
44434;SDS011;30138;20.964;105.830;2023-12-29T13:07:30;206.30;;;134.85;;
44434;SDS011;30138;20.964;105.830;2023-12-29T13:12:38;210.77;;;134.73;;
44434;SDS011;30138;20.964;105.830;2023-12-29T13:17:49;204.80;;;132.15;;
44434;SDS011;30138;20.964;105.830;2023-12-29T13:22:56;208.07;;;130.00;;
44434;SDS011;30138;20.964;105.830;2023-12-29T13:28:05;195.57;;;128.50;;
44434;SDS011;30138;20.964;105.830;2023-12-29T13:33:13;203.80;;;129.98;;
44434;SDS011;30138;20.964;105.830;2023-12-29T13:38:24;194.18;;;124.13;;
44434;SDS011;30138;20.964;105.830;2023-12-29T13:43:38;193.20;;;123.97;;
44434;SDS011;30138;20.964;105.830;2023-12-29T13:48:47;195.03;;;122.90;;
44434;SDS011;30138;20.964;105.830;2023-12-29T13:53:58;187.20;;;119.03;;
44434;SDS011;30138;20.964;105.830;2023-12-29T13:59:07;181.23;;;116.63;;
44434;SDS011;30138;20.964;105.830;2023-12-29T14:04:14;172.65;;;114.78;;
44434;SDS011;30138;20.964;105.830;2023-12-29T14:09:25;172.52;;;112.18;;
44434;SDS011;30138;20.964;105.830;2023-12-29T14:14:33;171.52;;;110.35;;
44434;SDS011;30138;20.964;105.830;2023-12-29T14:19:40;165.15;;;107.65;;
44434;SDS011;30138;20.964;105.830;2023-12-29T14:24:52;161.95;;;106.90;;
44434;SDS011;30138;20.964;105.830;2023-12-29T14:30:19;163.55;;;105.18;;
44434;SDS011;30138;20.964;105.830;2023-12-29T14:35:24;159.00;;;103.53;;
44434;SDS011;30138;20.964;105.830;2023-12-29T14:40:30;156.68;;;103.70;;
44434;SDS011;30138;20.964;105.830;2023-12-29T14:45:39;145.73;;;97.45;;
44434;SDS011;30138;20.964;105.830;2023-12-29T14:50:45;146.15;;;97.90;;
44434;SDS011;30138;20.964;105.830;2023-12-29T14:55:51;147.05;;;97.78;;
44434;SDS011;30138;20.964;105.830;2023-12-29T15:00:59;150.40;;;95.63;;
44434;SDS011;30138;20.964;105.830;2023-12-29T15:06:05;139.95;;;95.15;;
44434;SDS011;30138;20.964;105.830;2023-12-29T15:11:11;138.25;;;92.20;;
44434;SDS011;30138;20.964;105.830;2023-12-29T15:16:18;138.48;;;91.63;;
44434;SDS011;30138;20.964;105.830;2023-12-29T15:21:24;130.38;;;87.82;;
44434;SDS011;30138;20.964;105.830;2023-12-29T15:26:33;129.35;;;85.13;;
44434;SDS011;30138;20.964;105.830;2023-12-29T15:31:43;131.07;;;86.55;;
44434;SDS011;30138;20.964;105.830;2023-12-29T15:36:49;129.45;;;83.72;;
44434;SDS011;30138;20.964;105.830;2023-12-29T15:41:55;123.15;;;82.00;;
44434;SDS011;30138;20.964;105.830;2023-12-29T15:47:03;120.90;;;81.22;;
44434;SDS011;30138;20.964;105.830;2023-12-29T15:52:10;116.32;;;79.63;;
44434;SDS011;30138;20.964;105.830;2023-12-29T15:57:16;118.55;;;79.90;;
44434;SDS011;30138;20.964;105.830;2023-12-29T16:02:24;121.30;;;77.90;;
44434;SDS011;30138;20.964;105.830;2023-12-29T16:07:31;111.93;;;74.80;;
44434;SDS011;30138;20.964;105.830;2023-12-29T16:12:38;114.93;;;76.72;;
44434;SDS011;30138;20.964;105.830;2023-12-29T16:17:47;115.05;;;75.25;;
44434;SDS011;30138;20.964;105.830;2023-12-29T16:22:54;109.47;;;71.40;;
44434;SDS011;30138;20.964;105.830;2023-12-29T16:28:01;110.80;;;71.80;;
44434;SDS011;30138;20.964;105.830;2023-12-29T16:33:09;110.13;;;71.40;;
44434;SDS011;30138;20.964;105.830;2023-12-29T16:38:14;106.90;;;70.53;;
44434;SDS011;30138;20.964;105.830;2023-12-29T16:43:23;103.88;;;68.78;;
44434;SDS011;30138;20.964;105.830;2023-12-29T16:48:31;100.53;;;67.40;;
44434;SDS011;30138;20.964;105.830;2023-12-29T16:53:38;101.55;;;66.88;;
44434;SDS011;30138;20.964;105.830;2023-12-29T16:58:45;107.32;;;67.60;;
44434;SDS011;30138;20.964;105.830;2023-12-29T17:03:53;105.90;;;67.15;;
44434;SDS011;30138;20.964;105.830;2023-12-29T17:08:59;108.70;;;67.55;;
44434;SDS011;30138;20.964;105.830;2023-12-29T17:14:05;102.97;;;67.20;;
44434;SDS011;30138;20.964;105.830;2023-12-29T17:19:13;99.63;;;65.63;;
44434;SDS011;30138;20.964;105.830;2023-12-29T17:24:20;95.60;;;64.32;;
44434;SDS011;30138;20.964;105.830;2023-12-29T17:29:26;97.97;;;63.33;;
44434;SDS011;30138;20.964;105.830;2023-12-29T17:34:35;94.40;;;62.00;;
44434;SDS011;30138;20.964;105.830;2023-12-29T17:39:41;95.57;;;63.20;;
44434;SDS011;30138;20.964;105.830;2023-12-29T17:44:47;93.93;;;63.08;;
44434;SDS011;30138;20.964;105.830;2023-12-29T17:49:55;88.75;;;61.08;;
44434;SDS011;30138;20.964;105.830;2023-12-29T17:55:01;94.30;;;63.85;;
44434;SDS011;30138;20.964;105.830;2023-12-29T18:00:09;87.75;;;60.58;;
44434;SDS011;30138;20.964;105.830;2023-12-29T18:05:19;91.22;;;59.88;;
44434;SDS011;30138;20.964;105.830;2023-12-29T18:10:26;90.57;;;62.17;;
44434;SDS011;30138;20.964;105.830;2023-12-29T18:15:33;85.95;;;60.35;;
44434;SDS011;30138;20.964;105.830;2023-12-29T18:20:42;87.32;;;57.88;;
44434;SDS011;30138;20.964;105.830;2023-12-29T18:25:50;87.05;;;60.03;;
44434;SDS011;30138;20.964;105.830;2023-12-29T18:30:57;92.07;;;59.25;;
44434;SDS011;30138;20.964;105.830;2023-12-29T18:36:08;88.80;;;58.42;;
44434;SDS011;30138;20.964;105.830;2023-12-29T18:41:15;79.93;;;57.00;;
44434;SDS011;30138;20.964;105.830;2023-12-29T18:46:25;85.22;;;58.13;;
44434;SDS011;30138;20.964;105.830;2023-12-29T18:51:34;79.35;;;56.05;;
44434;SDS011;30138;20.964;105.830;2023-12-29T18:56:40;84.57;;;56.63;;
44434;SDS011;30138;20.964;105.830;2023-12-29T19:01:47;81.15;;;54.65;;
44434;SDS011;30138;20.964;105.830;2023-12-29T19:06:55;81.45;;;54.95;;
44434;SDS011;30138;20.964;105.830;2023-12-29T19:12:02;84.10;;;54.53;;
44434;SDS011;30138;20.964;105.830;2023-12-29T19:17:09;79.28;;;53.80;;
44434;SDS011;30138;20.964;105.830;2023-12-29T19:22:18;77.97;;;54.42;;
44434;SDS011;30138;20.964;105.830;2023-12-29T19:27:25;78.65;;;54.47;;
44434;SDS011;30138;20.964;105.830;2023-12-29T19:32:31;78.93;;;53.05;;
44434;SDS011;30138;20.964;105.830;2023-12-29T19:37:40;74.13;;;52.33;;
44434;SDS011;30138;20.964;105.830;2023-12-29T19:42:46;72.93;;;51.72;;
44434;SDS011;30138;20.964;105.830;2023-12-29T19:47:52;75.88;;;53.38;;
44434;SDS011;30138;20.964;105.830;2023-12-29T19:53:01;78.57;;;52.47;;
44434;SDS011;30138;20.964;105.830;2023-12-29T19:58:07;69.25;;;50.45;;
44434;SDS011;30138;20.964;105.830;2023-12-29T20:03:14;73.38;;;50.92;;
44434;SDS011;30138;20.964;105.830;2023-12-29T20:08:22;75.07;;;51.65;;
44434;SDS011;30138;20.964;105.830;2023-12-29T20:13:29;70.53;;;49.83;;
44434;SDS011;30138;20.964;105.830;2023-12-29T20:18:35;70.07;;;50.25;;
44434;SDS011;30138;20.964;105.830;2023-12-29T20:23:42;73.55;;;48.85;;
44434;SDS011;30138;20.964;105.830;2023-12-29T20:28:48;70.78;;;49.05;;
44434;SDS011;30138;20.964;105.830;2023-12-29T20:33:56;67.68;;;49.05;;
44434;SDS011;30138;20.964;105.830;2023-12-29T20:39:05;70.03;;;49.03;;
44434;SDS011;30138;20.964;105.830;2023-12-29T20:44:12;74.47;;;50.42;;
44434;SDS011;30138;20.964;105.830;2023-12-29T20:49:19;71.00;;;48.85;;
44434;SDS011;30138;20.964;105.830;2023-12-29T20:54:30;68.53;;;48.28;;
44434;SDS011;30138;20.964;105.830;2023-12-29T20:59:38;70.60;;;47.67;;
44434;SDS011;30138;20.964;105.830;2023-12-29T21:04:45;63.63;;;46.72;;
44434;SDS011;30138;20.964;105.830;2023-12-29T21:09:53;66.38;;;47.55;;
44434;SDS011;30138;20.964;105.830;2023-12-29T21:15:00;67.45;;;48.35;;
44434;SDS011;30138;20.964;105.830;2023-12-29T21:20:07;68.22;;;47.58;;
44434;SDS011;30138;20.964;105.830;2023-12-29T21:25:16;64.72;;;47.33;;
44434;SDS011;30138;20.964;105.830;2023-12-29T21:30:22;65.63;;;45.85;;
44434;SDS011;30138;20.964;105.830;2023-12-29T21:35:29;65.18;;;47.08;;
44434;SDS011;30138;20.964;105.830;2023-12-29T21:40:38;69.20;;;46.13;;
44434;SDS011;30138;20.964;105.830;2023-12-29T21:45:44;68.07;;;46.70;;
44434;SDS011;30138;20.964;105.830;2023-12-29T21:50:51;64.10;;;47.13;;
44434;SDS011;30138;20.964;105.830;2023-12-29T21:55:59;63.00;;;47.15;;
44434;SDS011;30138;20.964;105.830;2023-12-29T22:06:37;69.80;;;46.50;;
44434;SDS011;30138;20.964;105.830;2023-12-29T22:11:46;65.15;;;46.53;;
44434;SDS011;30138;20.964;105.830;2023-12-29T22:16:52;64.88;;;46.75;;
44434;SDS011;30138;20.964;105.830;2023-12-29T22:21:59;64.32;;;45.00;;
44434;SDS011;30138;20.964;105.830;2023-12-29T22:27:08;65.50;;;47.53;;
44434;SDS011;30138;20.964;105.830;2023-12-29T22:32:14;65.88;;;47.10;;
44434;SDS011;30138;20.964;105.830;2023-12-29T22:37:20;68.90;;;49.97;;
44434;SDS011;30138;20.964;105.830;2023-12-29T22:42:29;79.38;;;54.22;;
44434;SDS011;30138;20.964;105.830;2023-12-29T22:47:36;69.35;;;51.13;;
44434;SDS011;30138;20.964;105.830;2023-12-29T22:52:42;77.65;;;55.30;;
44434;SDS011;30138;20.964;105.830;2023-12-29T22:57:50;76.05;;;53.15;;
44434;SDS011;30138;20.964;105.830;2023-12-29T23:02:59;76.97;;;55.75;;
44434;SDS011;30138;20.964;105.830;2023-12-29T23:08:06;80.45;;;56.42;;
44434;SDS011;30138;20.964;105.830;2023-12-29T23:13:14;78.70;;;53.45;;
44434;SDS011;30138;20.964;105.830;2023-12-29T23:18:21;78.85;;;52.58;;
44434;SDS011;30138;20.964;105.830;2023-12-29T23:23:27;72.50;;;51.63;;
44434;SDS011;30138;20.964;105.830;2023-12-29T23:28:37;71.07;;;50.90;;
44434;SDS011;30138;20.964;105.830;2023-12-29T23:33:43;74.10;;;51.42;;
44434;SDS011;30138;20.964;105.830;2023-12-29T23:38:51;71.40;;;49.38;;
44434;SDS011;30138;20.964;105.830;2023-12-29T23:43:58;73.70;;;51.55;;
44434;SDS011;30138;20.964;105.830;2023-12-29T23:49:05;75.15;;;52.20;;
44434;SDS011;30138;20.964;105.830;2023-12-29T23:54:11;75.93;;;51.55;;
44434;SDS011;30138;20.964;105.830;2023-12-29T23:59:20;74.90;;;52.67;;
